Millenium Air

Millenium Air Since 1998



 METAR AND TAF INFORMATION
METAR FOR LIBP
ADDS - METARS form results

(0430 UTC 05 August 2020)
Data provider http://aviationweather.gov/metar/data/
 
METAR text: LIBP 050420Z AUTO 25004KT //// // SCT077/// BKN100/// BKN140/// 18/17 Q1008
Conditions at: LIBP (PESCARA , IT) observed 0420 UTC 05 August 2020
Temperature: 18.0°C (64°F)
Dewpoint: 17.0°C (63°F) [RH = 94%]
Pressure (altimeter): 29.76 inches Hg (1008.0 mb)
Winds: from the WSW (250 degrees) at 5 MPH (4 knots; 2.1 m/s)
Visibility: missing
Ceiling: 10000 feet AGL
Clouds: scattered clouds at 7700 feet AGL
broken clouds at 10000 feet AGL
broken clouds at 14000 feet AGL
Weather: no significant weather observed at this time

METAR text: LIBP 050350Z AUTO 23005KT //// // FEW098 SCT130 BKN160 18/17 Q1009
Conditions at: LIBP (PESCARA , IT) observed 0350 UTC 05 August 2020
Temperature: 18.0°C (64°F)
Dewpoint: 17.0°C (63°F) [RH = 94%]
Pressure (altimeter): 29.79 inches Hg (1009.0 mb)
Winds: from the SW (230 degrees) at 6 MPH (5 knots; 2.6 m/s)
Visibility: missing
Ceiling: 16000 feet AGL
Clouds: few clouds at 9800 feet AGL
scattered clouds at 13000 feet AGL
broken clouds at 16000 feet AGL
Weather: no significant weather observed at this time

Forecast for: LIBP (PESCARA , IT)
Text: TAF LIBP 042300Z 0500/0524 33015KT 9999 SCT030
Forecast period: 0000 UTC 05 August 2020 to 0000 UTC 06 August 2020
Forecast type: FROM: standard forecast or significant change
Winds: from the NNW (330 degrees) at 17 MPH (15 knots; 7.7 m/s)
Visibility: 6 or more miles 10+ km)
Ceiling: at least 12,000 feet AGL
Clouds: scattered clouds at 3000 feet AGL
Weather: no significant weather forecast for this period
Text: TEMPO 0500/0510 TSRA
Forecast period: 0000 to 1000 UTC 05 August 2020
Forecast type: TEMPORARY: The following changes expected for less than half the time period
Visibility: missing
Ceiling: unknown
Clouds: missing
Weather: TSRA  (rain associated with thunderstorm(s))

 AIRPORT MAP

 RUNWAY INFORMATION
Runway 04 Runway length 7933 ft Runway width 148 ft
Runway elevation 46 ft Runway displaced threshold 344 ft Runway heading 38
Runway 22 Runway length 7933 ft Runway width 148 ft
Runway elevation 27 ft Runway displaced threshold 617 ft Runway heading 218

 AIRPORT FREQUENCIES
Type APP Name APP Frequency 120.05 MHZ
Type TWR Name TWR Frequency 118.45 MHZ

 AIRPORT NEAR NAVIGATION AIDS
Type VOR-DME Name Pescara Frequency 115900 KHZ